createdAt,value
2017-12-14T02:06:09.475Z,0.00
2017-12-14T02:07:03.961Z,0.00
2017-12-14T02:08:09.955Z,0.00
2017-12-14T02:09:04.846Z,0.00
2017-12-14T02:10:24.979Z,0.00
2017-12-14T02:11:03.974Z,0.00
2017-12-14T02:12:08.965Z,0.00
2017-12-14T02:13:03.979Z,0.00
2017-12-14T02:14:11.026Z,0.00
2017-12-14T02:15:03.975Z,0.00
2017-12-14T02:16:06.123Z,0.00
2017-12-14T02:17:03.983Z,0.00
2017-12-14T02:18:04.193Z,0.00
2017-12-14T02:19:03.986Z,0.00
2017-12-14T02:20:14.957Z,0.00
2017-12-14T02:21:03.997Z,0.00
2017-12-14T02:22:04.152Z,0.00
2017-12-14T02:23:04.010Z,0.00
2017-12-14T02:24:04.164Z,0.00
2017-12-14T02:25:04.022Z,0.00
2017-12-14T02:26:05.210Z,0.00
2017-12-14T02:27:04.014Z,0.00
2017-12-14T02:28:26.216Z,0.00
2017-12-14T02:29:04.024Z,0.00
2017-12-14T02:30:04.027Z,0.00
2017-12-14T02:31:05.241Z,0.00
2017-12-14T02:32:04.032Z,0.00
2017-12-14T02:33:10.980Z,0.00
2017-12-14T02:34:04.037Z,0.00
2017-12-14T02:35:21.040Z,0.00
2017-12-14T02:36:04.045Z,0.00
2017-12-14T02:37:04.250Z,0.00
2017-12-14T02:38:04.049Z,0.00
2017-12-14T02:39:06.209Z,0.00
2017-12-14T02:40:04.053Z,0.00
2017-12-14T02:41:10.020Z,0.00
2017-12-14T02:42:04.063Z,0.00
2017-12-14T02:43:11.054Z,0.00
2017-12-14T02:44:04.074Z,0.00
2017-12-14T02:45:15.074Z,0.00
2017-12-14T02:46:04.063Z,0.00
2017-12-14T02:47:25.086Z,0.00
2017-12-14T02:48:04.071Z,0.00
2017-12-14T02:49:04.078Z,0.00
2017-12-14T02:50:17.040Z,0.00
2017-12-14T02:51:04.092Z,0.00
2017-12-14T02:52:35.896Z,0.00
2017-12-14T02:53:04.088Z,0.00
2017-12-14T02:54:04.088Z,0.00
2017-12-14T02:55:05.196Z,0.00
2017-12-14T02:56:04.097Z,0.00
2017-12-14T02:57:18.934Z,0.00
2017-12-14T02:58:04.107Z,0.00
2017-12-14T02:59:25.193Z,0.00
2017-12-14T03:00:04.110Z,0.00
2017-12-14T03:01:04.110Z,0.00
2017-12-14T03:02:20.915Z,0.00
2017-12-14T03:03:04.125Z,0.00
2017-12-14T03:04:08.944Z,0.00
2017-12-14T03:05:04.125Z,0.00
2017-12-14T03:11:37.391Z,0.00
2017-12-14T03:12:13.880Z,0.00
2017-12-14T03:13:15.966Z,0.00
2017-12-14T03:14:13.881Z,0.00
2017-12-14T03:15:18.848Z,0.00
2017-12-14T03:16:13.892Z,0.00
2017-12-14T03:17:15.992Z,0.00
2017-12-14T03:18:13.892Z,0.00
2017-12-14T03:19:28.909Z,0.00
2017-12-14T03:20:13.912Z,0.00
2017-12-14T03:21:37.825Z,0.00
2017-12-14T03:22:13.915Z,0.00
2017-12-14T03:23:41.840Z,0.00
2017-12-14T03:24:13.914Z,0.00
2017-12-14T03:25:19.937Z,0.00
2017-12-14T03:26:13.919Z,0.00
2017-12-14T03:27:50.887Z,0.00
2017-12-14T03:28:13.932Z,0.00
2017-12-14T06:55:50.968Z,0.00
2017-12-14T06:56:47.077Z,0.00
2017-12-14T06:57:42.249Z,0.00
2017-12-14T06:58:43.311Z,0.00
2017-12-14T06:59:42.262Z,0.00
2017-12-14T07:00:42.321Z,0.00
2017-12-14T07:01:42.263Z,0.00
2017-12-14T07:02:42.302Z,0.00
2017-12-14T07:03:42.276Z,0.00
2017-12-14T07:04:42.270Z,0.00
2017-12-14T07:05:42.278Z,0.00
2017-12-14T07:06:42.282Z,0.00
2017-12-14T07:07:42.298Z,0.00
2017-12-14T07:08:42.448Z,0.00
2017-12-14T07:09:42.299Z,0.00
2017-12-14T07:10:42.307Z,0.00
2017-12-14T07:11:42.367Z,4.00
2017-12-14T07:12:42.326Z,0.00
2017-12-14T07:13:42.314Z,0.00
2017-12-14T07:14:42.318Z,0.00
2017-12-14T07:15:42.311Z,4.00
2017-12-14T07:16:42.365Z,0.00
2017-12-14T07:17:42.322Z,0.00
2017-12-14T07:18:42.409Z,4.00
2017-12-14T07:19:42.353Z,4.00
2017-12-14T07:20:42.431Z,4.00
2017-12-14T07:21:42.346Z,8.00
2017-12-14T07:22:44.399Z,4.00
2017-12-14T07:23:42.360Z,4.00
2017-12-14T07:24:42.447Z,8.00
2017-12-14T07:25:42.360Z,8.00
2017-12-14T07:26:42.355Z,4.00
2017-12-14T07:27:43.386Z,12.00
2017-12-14T07:28:42.368Z,8.00
2017-12-14T07:29:43.413Z,8.00
2017-12-14T07:30:42.377Z,8.00
2017-12-14T07:31:42.396Z,8.00
2017-12-14T07:32:42.369Z,8.00
2017-12-14T07:33:42.407Z,12.00
2017-12-14T07:34:42.387Z,16.00
2017-12-14T07:35:43.445Z,24.00
2017-12-14T07:36:42.391Z,20.00
2017-12-14T07:37:42.453Z,20.00
2017-12-14T07:38:42.395Z,20.00
2017-12-14T07:39:42.444Z,16.00
2017-12-14T07:40:42.430Z,16.00
2017-12-14T07:41:42.463Z,12.00
2017-12-14T07:42:42.423Z,12.00
2017-12-14T07:43:42.470Z,16.00
2017-12-14T07:44:42.453Z,16.00
2017-12-14T07:45:42.491Z,20.00
2017-12-14T07:46:42.426Z,24.00
2017-12-14T07:47:42.508Z,24.00
2017-12-14T07:48:42.431Z,28.00
2017-12-14T07:49:42.524Z,32.00
2017-12-14T07:50:42.442Z,44.00
2017-12-14T07:51:43.582Z,44.00
2017-12-14T07:52:42.450Z,44.00
2017-12-14T07:53:42.545Z,36.00
2017-12-14T07:54:42.460Z,24.00
2017-12-14T07:55:44.504Z,20.00
2017-12-14T07:56:42.465Z,24.00
2017-12-14T07:57:42.578Z,20.00
2017-12-14T07:58:42.475Z,28.00
2017-12-14T07:59:42.498Z,32.00
2017-12-14T08:00:42.478Z,28.00
2017-12-14T08:01:42.506Z,24.00
2017-12-14T08:02:42.492Z,20.00
2017-12-14T08:03:44.574Z,16.00
2017-12-14T08:04:42.490Z,20.00
2017-12-14T08:05:42.526Z,32.00
2017-12-14T08:06:42.496Z,32.00
2017-12-14T08:07:42.543Z,36.00
2017-12-14T08:08:42.503Z,40.00
2017-12-14T08:09:42.547Z,52.00
2017-12-14T08:10:42.516Z,48.00
2017-12-14T08:11:42.509Z,52.00
2017-12-14T08:12:42.536Z,60.00
2017-12-14T08:13:43.605Z,56.00
2017-12-14T08:14:42.531Z,64.00
2017-12-14T08:15:42.592Z,80.00
2017-12-14T08:16:42.539Z,100.00
2017-12-14T08:17:42.609Z,116.00
2017-12-14T08:18:42.558Z,132.00
2017-12-14T08:19:42.619Z,136.00
2017-12-14T08:20:42.552Z,148.00
2017-12-14T08:21:42.634Z,152.00
2017-12-14T08:22:42.598Z,160.00
2017-12-14T08:23:43.674Z,164.00
2017-12-14T08:24:42.555Z,160.00
2017-12-14T08:25:42.661Z,156.00
2017-12-14T08:26:42.560Z,140.00
2017-12-14T08:27:42.679Z,140.00
2017-12-14T08:28:42.566Z,176.00
2017-12-14T08:29:42.693Z,208.00
2017-12-14T08:30:42.579Z,252.00
2017-12-14T08:31:42.580Z,256.00
2017-12-14T08:32:44.656Z,236.00
2017-12-14T08:33:42.596Z,252.00
2017-12-14T08:34:42.633Z,240.00
2017-12-14T08:35:42.599Z,232.00
2017-12-14T08:36:43.670Z,200.00
2017-12-14T08:37:42.604Z,172.00
2017-12-14T08:38:42.641Z,196.00
2017-12-14T08:39:42.615Z,176.00
2017-12-14T08:40:44.706Z,160.00
2017-12-14T08:41:42.627Z,180.00
2017-12-14T08:42:42.684Z,300.00
2017-12-14T08:43:42.627Z,308.00
2017-12-14T08:44:42.688Z,256.00
2017-12-14T08:45:42.641Z,304.00
2017-12-14T08:46:44.750Z,364.00
2017-12-14T08:47:42.642Z,400.00
2017-12-14T08:48:44.767Z,440.00
2017-12-14T08:49:42.645Z,444.00
2017-12-14T08:50:43.776Z,452.00
2017-12-14T08:51:42.655Z,408.00
2017-12-14T08:52:42.738Z,364.00
2017-12-14T08:53:42.663Z,420.00
2017-12-14T08:54:42.761Z,464.00
2017-12-14T08:55:42.673Z,480.00
2017-12-14T08:56:42.784Z,452.00
2017-12-14T08:57:42.693Z,400.00
2017-12-14T08:58:42.778Z,348.00
2017-12-14T08:59:42.688Z,312.00
2017-12-14T09:00:43.719Z,308.00
2017-12-14T09:01:42.687Z,240.00
2017-12-14T09:02:42.703Z,240.00
2017-12-14T09:03:42.697Z,220.00
2017-12-14T09:04:42.696Z,192.00
2017-12-14T09:05:42.701Z,172.00
2017-12-14T09:06:42.742Z,152.00
2017-12-14T09:07:42.707Z,140.00
2017-12-14T09:08:43.776Z,140.00
2017-12-14T09:09:42.723Z,136.00
2017-12-14T09:10:42.762Z,160.00
2017-12-14T09:11:42.740Z,160.00
2017-12-14T09:12:42.776Z,200.00
2017-12-14T09:13:42.734Z,244.00
2017-12-14T09:14:42.790Z,244.00
2017-12-14T09:15:42.745Z,204.00
2017-12-14T09:16:44.853Z,212.00
2017-12-14T09:17:42.817Z,200.00
2017-12-14T09:18:43.844Z,216.00
2017-12-14T09:19:42.761Z,208.00
2017-12-14T09:20:44.779Z,204.00
2017-12-14T09:21:42.774Z,180.00
2017-12-14T09:22:42.875Z,172.00
2017-12-14T09:23:42.771Z,172.00
2017-12-14T09:24:42.853Z,168.00
2017-12-14T09:25:42.781Z,168.00
2017-12-14T09:26:43.789Z,160.00
2017-12-14T09:27:42.791Z,160.00
2017-12-14T09:28:43.799Z,192.00
2017-12-14T09:29:42.809Z,240.00
2017-12-14T09:30:42.902Z,252.00
2017-12-14T09:31:42.797Z,288.00
2017-12-14T09:32:42.931Z,312.00
2017-12-14T09:33:42.801Z,324.00
2017-12-14T09:34:47.536Z,320.00
2017-12-14T09:35:42.814Z,280.00
2017-12-14T09:36:42.854Z,244.00
2017-12-14T09:37:42.816Z,220.00
2017-12-14T09:38:42.865Z,200.00
2017-12-14T09:39:42.828Z,156.00
2017-12-14T09:40:42.871Z,168.00
2017-12-14T09:41:42.835Z,176.00
2017-12-14T09:42:42.836Z,180.00
2017-12-14T09:43:42.843Z,180.00
2017-12-14T09:44:42.894Z,172.00
2017-12-14T09:45:42.847Z,164.00
2017-12-14T09:46:42.904Z,144.00
2017-12-14T09:47:42.869Z,168.00
2017-12-14T09:48:43.945Z,172.00
2017-12-14T09:49:42.861Z,168.00
2017-12-14T09:50:43.959Z,200.00
2017-12-14T09:51:42.871Z,236.00
2017-12-14T09:52:43.970Z,232.00
2017-12-14T09:53:42.878Z,196.00
2017-12-14T09:54:42.874Z,212.00
2017-12-14T09:55:42.947Z,228.00
2017-12-14T09:56:42.887Z,240.00
2017-12-14T09:57:47.563Z,220.00
2017-12-14T09:58:42.900Z,180.00
2017-12-14T09:59:42.976Z,132.00
2017-12-14T10:00:42.906Z,116.00
2017-12-14T10:01:42.914Z,116.00
2017-12-14T10:02:43.003Z,128.00
2017-12-14T10:03:42.906Z,116.00
2017-12-14T10:04:43.930Z,96.00
2017-12-14T10:05:42.915Z,100.00
2017-12-14T10:06:42.930Z,76.00
2017-12-14T10:07:43.028Z,72.00
2017-12-14T10:08:42.923Z,84.00
2017-12-14T10:09:43.043Z,80.00
2017-12-14T10:10:42.933Z,88.00
2017-12-14T10:11:42.968Z,76.00
2017-12-14T10:12:42.939Z,72.00
2017-12-14T10:13:42.968Z,68.00
2017-12-14T10:14:42.948Z,80.00
2017-12-14T10:15:42.980Z,80.00
2017-12-14T10:16:42.967Z,64.00
2017-12-14T10:17:42.988Z,64.00
2017-12-14T10:18:42.960Z,60.00
2017-12-14T10:19:44.046Z,64.00
2017-12-14T10:20:42.977Z,56.00
2017-12-14T10:21:42.974Z,60.00
2017-12-14T10:22:43.025Z,64.00
2017-12-14T10:23:42.981Z,44.00
2017-12-14T10:24:45.086Z,40.00
2017-12-14T10:25:42.991Z,44.00
2017-12-14T10:26:43.048Z,40.00
2017-12-14T10:27:43.037Z,44.00
2017-12-14T10:28:43.001Z,40.00
2017-12-14T10:29:43.069Z,44.00
2017-12-14T10:30:43.014Z,44.00
2017-12-14T10:31:43.084Z,60.00
2017-12-14T10:32:43.043Z,76.00
2017-12-14T10:33:43.102Z,88.00
2017-12-14T10:34:43.036Z,92.00
2017-12-14T10:35:43.108Z,76.00
2017-12-14T10:36:43.032Z,96.00
2017-12-14T10:37:43.131Z,120.00
2017-12-14T10:38:43.031Z,120.00
2017-12-14T10:39:44.073Z,140.00
2017-12-14T10:40:43.040Z,148.00
2017-12-14T10:41:43.051Z,156.00
2017-12-14T10:42:44.086Z,144.00
2017-12-14T10:43:43.093Z,120.00
2017-12-14T10:44:43.074Z,136.00
2017-12-14T10:45:43.068Z,112.00
2017-12-14T10:46:43.088Z,104.00
2017-12-14T10:47:43.068Z,112.00
2017-12-14T10:48:43.117Z,124.00
2017-12-14T10:49:43.073Z,112.00
2017-12-14T10:50:43.115Z,84.00
2017-12-14T10:51:43.092Z,80.00
2017-12-14T10:52:43.137Z,68.00
2017-12-14T10:53:43.098Z,72.00
2017-12-14T10:54:43.149Z,60.00
2017-12-14T10:55:43.110Z,60.00
2017-12-14T10:56:48.091Z,76.00
2017-12-14T10:57:43.129Z,72.00
2017-12-14T10:58:43.172Z,72.00
2017-12-14T10:59:43.160Z,84.00
2017-12-14T11:00:43.194Z,80.00
2017-12-14T11:01:43.127Z,84.00
2017-12-14T11:02:48.016Z,84.00
2017-12-14T11:03:43.143Z,88.00
2017-12-14T11:04:49.054Z,84.00
2017-12-14T11:05:43.137Z,76.00
2017-12-14T11:06:43.136Z,76.00
2017-12-14T11:07:44.153Z,92.00
2017-12-14T11:08:43.151Z,92.00
2017-12-14T11:09:43.246Z,88.00
2017-12-14T11:10:43.160Z,92.00
2017-12-14T11:11:43.218Z,80.00
2017-12-14T11:12:43.161Z,84.00
2017-12-14T11:13:43.229Z,84.00
2017-12-14T11:14:43.167Z,72.00
2017-12-14T11:15:44.269Z,64.00
2017-12-14T11:16:43.165Z,52.00
2017-12-14T11:17:43.257Z,52.00
2017-12-14T11:18:43.225Z,68.00
2017-12-14T11:19:45.208Z,56.00
2017-12-14T11:20:43.198Z,64.00
2017-12-14T11:21:50.040Z,84.00
2017-12-14T11:22:43.203Z,104.00
2017-12-14T11:23:48.119Z,124.00
2017-12-14T11:24:43.200Z,160.00
2017-12-14T11:25:44.346Z,204.00
2017-12-14T11:26:43.213Z,228.00
2017-12-14T11:27:43.320Z,204.00
2017-12-14T11:28:43.232Z,184.00
2017-12-14T11:29:44.260Z,232.00
2017-12-14T11:30:43.230Z,292.00
2017-12-14T11:31:43.356Z,336.00
2017-12-14T11:32:43.231Z,368.00
2017-12-14T11:33:43.363Z,432.00
2017-12-14T11:34:43.236Z,416.00
2017-12-14T11:35:45.324Z,352.00
2017-12-14T11:36:43.244Z,276.00
2017-12-14T11:37:43.244Z,212.00
2017-12-14T11:38:43.269Z,208.00
2017-12-14T11:39:43.260Z,248.00
2017-12-14T11:40:43.320Z,328.00
2017-12-14T11:41:43.296Z,344.00
2017-12-14T11:42:43.333Z,320.00
2017-12-14T11:43:43.275Z,316.00
2017-12-14T11:44:43.282Z,312.00
2017-12-14T11:45:43.277Z,296.00
2017-12-14T11:46:43.347Z,272.00
2017-12-14T11:47:43.289Z,244.00
2017-12-14T11:48:43.358Z,196.00
2017-12-14T11:49:43.286Z,176.00
2017-12-14T11:50:49.107Z,188.00
2017-12-14T11:51:43.302Z,172.00
2017-12-14T11:52:44.438Z,172.00
2017-12-14T11:53:43.336Z,152.00
2017-12-14T11:54:43.317Z,124.00
2017-12-14T11:55:45.356Z,116.00
2017-12-14T11:56:43.312Z,116.00
2017-12-14T11:57:43.434Z,124.00
2017-12-14T11:58:43.348Z,148.00
2017-12-14T11:59:43.431Z,152.00
2017-12-14T12:00:43.340Z,136.00
2017-12-14T12:01:43.323Z,140.00
2017-12-14T12:02:49.082Z,148.00
2017-12-14T12:03:43.339Z,160.00
2017-12-14T12:04:43.470Z,184.00
2017-12-14T12:05:43.340Z,228.00
2017-12-14T12:06:43.480Z,220.00
2017-12-14T12:07:43.354Z,196.00
2017-12-14T12:08:43.500Z,136.00
2017-12-14T12:09:43.369Z,112.00
2017-12-14T12:10:43.402Z,88.00
2017-12-14T12:11:43.377Z,68.00
2017-12-14T12:12:43.424Z,56.00
2017-12-14T12:13:43.373Z,52.00
2017-12-14T12:14:43.391Z,48.00
2017-12-14T12:15:43.396Z,48.00
2017-12-14T12:16:43.453Z,44.00
2017-12-14T12:17:43.388Z,48.00
2017-12-14T12:18:43.390Z,56.00
2017-12-14T12:19:43.415Z,72.00
2017-12-14T12:20:43.389Z,88.00
2017-12-14T12:22:07.113Z,96.00
2017-12-14T12:22:43.403Z,84.00
2017-12-14T12:23:59.059Z,80.00
2017-12-14T12:24:43.411Z,88.00
2017-12-14T12:25:43.489Z,92.00
2017-12-14T12:26:43.418Z,100.00
2017-12-14T12:27:49.027Z,88.00
2017-12-14T12:28:43.415Z,92.00
2017-12-14T12:30:11.062Z,104.00
2017-12-14T12:30:43.473Z,116.00
2017-12-14T12:32:04.532Z,140.00
2017-12-14T12:32:43.441Z,128.00
2017-12-14T12:34:13.145Z,120.00
2017-12-14T12:34:43.441Z,140.00
2017-12-14T12:35:43.527Z,124.00
2017-12-14T12:36:43.457Z,148.00
2017-12-14T12:37:43.631Z,148.00
2017-12-14T12:38:43.454Z,164.00
2017-12-14T12:39:43.691Z,168.00
2017-12-14T12:40:43.462Z,124.00
2017-12-14T12:41:44.596Z,112.00
2017-12-14T12:42:43.490Z,76.00
2017-12-14T12:43:45.626Z,68.00
2017-12-14T12:44:43.522Z,88.00
2017-12-14T12:45:45.631Z,80.00
2017-12-14T12:46:43.492Z,64.00
2017-12-14T12:47:43.598Z,56.00
2017-12-14T12:48:43.504Z,56.00
2017-12-14T12:49:43.612Z,60.00
2017-12-14T12:50:43.501Z,72.00
2017-12-14T12:51:48.128Z,76.00
2017-12-14T12:52:43.506Z,80.00
2017-12-14T12:53:44.683Z,80.00
2017-12-14T12:54:43.515Z,72.00
2017-12-14T12:55:45.709Z,60.00
2017-12-14T12:56:43.528Z,56.00
2017-12-14T12:57:43.691Z,60.00
2017-12-14T12:58:43.537Z,60.00
2017-12-14T12:59:44.713Z,72.00
2017-12-14T13:00:43.543Z,96.00
2017-12-14T13:01:43.554Z,84.00
2017-12-14T13:02:43.702Z,88.00
2017-12-14T13:03:43.547Z,80.00
2017-12-14T13:04:48.635Z,76.00
2017-12-14T13:05:43.566Z,64.00
2017-12-14T13:06:48.637Z,60.00
2017-12-14T13:07:43.573Z,64.00
2017-12-14T13:08:45.683Z,60.00
2017-12-14T13:09:43.574Z,52.00
2017-12-14T13:10:44.799Z,44.00
2017-12-14T13:11:43.615Z,40.00
2017-12-14T13:12:43.768Z,40.00
2017-12-14T13:13:43.588Z,44.00
2017-12-14T13:14:45.723Z,40.00
2017-12-14T13:15:43.592Z,56.00
2017-12-14T13:16:44.739Z,60.00
2017-12-14T13:17:43.617Z,60.00
2017-12-14T13:18:44.725Z,64.00
2017-12-14T13:19:43.604Z,76.00
2017-12-14T13:20:58.680Z,88.00
2017-12-14T13:21:43.607Z,136.00
2017-12-14T13:22:43.737Z,196.00
2017-12-14T13:23:43.627Z,236.00
2017-12-14T13:24:43.747Z,344.00
2017-12-14T13:25:43.626Z,452.00
2017-12-14T13:26:43.775Z,540.00
2017-12-14T13:27:43.636Z,560.00
2017-12-14T13:28:43.636Z,628.00
2017-12-14T13:29:43.666Z,644.00
2017-12-14T13:30:43.646Z,664.00
2017-12-14T13:31:44.838Z,676.00
2017-12-14T13:32:43.655Z,660.00
2017-12-14T13:33:43.806Z,616.00
2017-12-14T13:34:43.699Z,560.00
2017-12-14T13:35:43.827Z,520.00
2017-12-14T13:36:43.669Z,476.00
2017-12-14T13:37:43.668Z,460.00
2017-12-14T13:38:43.728Z,436.00
2017-12-14T13:39:43.686Z,400.00
2017-12-14T13:40:43.859Z,380.00
2017-12-14T13:41:43.684Z,368.00
2017-12-14T13:42:43.868Z,376.00
2017-12-14T13:43:43.688Z,368.00
2017-12-14T13:44:43.881Z,392.00
2017-12-14T13:45:43.691Z,388.00
2017-12-14T13:46:43.695Z,372.00
2017-12-14T13:47:43.714Z,356.00
2017-12-14T13:48:43.715Z,332.00
2017-12-14T13:49:43.725Z,312.00
2017-12-14T13:50:43.718Z,352.00
2017-12-14T13:51:43.716Z,384.00
2017-12-14T13:52:43.731Z,424.00
2017-12-14T13:53:43.717Z,404.00
2017-12-14T13:54:43.722Z,400.00
2017-12-14T13:55:43.728Z,400.00
2017-12-14T13:56:43.743Z,404.00
2017-12-14T13:57:43.745Z,408.00
2017-12-14T13:58:43.882Z,400.00
2017-12-14T13:59:43.739Z,388.00
2017-12-14T14:00:43.746Z,424.00
2017-12-14T14:01:43.768Z,404.00
2017-12-14T14:02:43.764Z,372.00
2017-12-14T14:03:43.758Z,368.00
2017-12-14T14:04:43.759Z,416.00
2017-12-14T14:05:43.769Z,424.00
2017-12-14T14:06:43.776Z,392.00
2017-12-14T14:07:43.815Z,360.00
2017-12-14T14:08:43.787Z,296.00
2017-12-14T14:09:43.779Z,300.00
2017-12-14T14:10:43.794Z,360.00
2017-12-14T14:11:43.787Z,388.00
2017-12-14T14:12:43.798Z,400.00
2017-12-14T14:13:43.799Z,408.00
2017-12-14T14:14:43.806Z,412.00
2017-12-14T14:15:43.860Z,412.00
2017-12-14T14:16:43.854Z,416.00
2017-12-14T14:17:43.808Z,396.00
2017-12-14T14:18:43.809Z,352.00
2017-12-14T14:19:43.842Z,336.00
2017-12-14T14:20:43.814Z,284.00
2017-12-14T14:21:43.824Z,256.00
2017-12-14T14:22:43.830Z,240.00
2017-12-14T14:23:43.928Z,256.00
2017-12-14T14:24:43.829Z,300.00
2017-12-14T14:25:43.932Z,308.00
2017-12-14T14:26:43.835Z,308.00
2017-12-14T14:27:43.952Z,312.00
2017-12-14T14:28:43.853Z,340.00
2017-12-14T14:29:44.016Z,328.00
2017-12-14T14:30:43.843Z,300.00
2017-12-14T14:31:43.851Z,304.00
2017-12-14T14:32:43.979Z,300.00
2017-12-14T14:33:43.875Z,308.00
2017-12-14T14:34:43.862Z,300.00
2017-12-14T14:35:43.899Z,276.00
2017-12-14T14:36:43.875Z,272.00
2017-12-14T14:37:43.877Z,260.00
2017-12-14T14:38:43.919Z,252.00
2017-12-14T14:39:43.895Z,240.00
2017-12-14T14:40:43.937Z,224.00
2017-12-14T14:41:43.903Z,208.00
2017-12-14T14:42:43.944Z,188.00
2017-12-14T14:43:43.908Z,180.00
2017-12-14T14:44:43.955Z,172.00
2017-12-14T14:45:43.907Z,168.00
2017-12-14T14:46:45.005Z,160.00
2017-12-14T14:47:43.935Z,144.00
2017-12-14T14:48:43.980Z,132.00
2017-12-14T14:49:43.949Z,116.00
2017-12-14T14:50:43.999Z,108.00
2017-12-14T14:51:43.932Z,100.00
2017-12-14T14:52:43.934Z,96.00
2017-12-14T14:53:44.022Z,92.00
2017-12-14T14:54:43.953Z,96.00
2017-12-14T14:55:44.036Z,88.00
2017-12-14T14:56:43.937Z,88.00
2017-12-14T14:57:43.946Z,84.00
2017-12-14T14:58:43.974Z,76.00
2017-12-14T14:59:44.056Z,72.00
2017-12-14T15:00:43.972Z,64.00
2017-12-14T15:01:43.976Z,56.00
2017-12-14T15:02:44.091Z,48.00
2017-12-14T15:03:43.965Z,48.00
2017-12-14T15:04:43.972Z,44.00
2017-12-14T15:05:43.996Z,36.00
2017-12-14T15:06:44.003Z,36.00
2017-12-14T15:07:43.980Z,32.00
2017-12-14T15:08:44.016Z,32.00
2017-12-14T15:09:44.010Z,32.00
2017-12-14T15:10:44.026Z,28.00
2017-12-14T15:11:43.998Z,24.00
2017-12-14T15:12:44.041Z,28.00
2017-12-14T15:13:44.008Z,24.00
2017-12-14T15:14:44.079Z,20.00
2017-12-14T15:15:44.012Z,24.00
2017-12-14T15:16:44.067Z,20.00
2017-12-14T15:17:44.022Z,20.00
2017-12-14T15:18:44.089Z,20.00
2017-12-14T15:19:44.042Z,20.00
2017-12-14T15:20:44.100Z,20.00
2017-12-14T15:21:44.035Z,12.00
2017-12-14T15:22:56.089Z,16.00
2017-12-14T15:23:44.163Z,16.00
2017-12-14T15:24:44.121Z,12.00
2017-12-14T15:25:44.052Z,12.00
2017-12-14T15:26:44.146Z,12.00
2017-12-14T15:27:44.094Z,8.00
2017-12-14T15:28:44.155Z,8.00
2017-12-14T15:29:44.079Z,8.00
2017-12-14T15:30:44.178Z,8.00
2017-12-14T15:31:44.129Z,4.00
2017-12-14T15:32:44.179Z,4.00
2017-12-14T15:33:44.073Z,8.00
2017-12-14T15:34:44.195Z,4.00
2017-12-14T15:35:44.075Z,4.00
2017-12-14T15:36:44.106Z,4.00
2017-12-14T15:37:44.096Z,4.00
2017-12-14T15:38:44.119Z,4.00
2017-12-14T15:39:44.112Z,0.00
2017-12-14T15:40:44.134Z,0.00
2017-12-14T15:41:44.106Z,4.00
2017-12-14T15:42:44.146Z,0.00
2017-12-14T15:43:44.104Z,0.00
2017-12-14T15:44:44.162Z,0.00
2017-12-14T15:45:44.119Z,0.00
2017-12-14T15:46:44.174Z,0.00
2017-12-14T15:47:44.116Z,0.00
2017-12-14T15:48:44.196Z,0.00
2017-12-14T15:49:44.127Z,0.00
2017-12-14T15:50:45.230Z,0.00
2017-12-14T15:51:44.137Z,0.00
2017-12-14T15:52:44.215Z,0.00
2017-12-14T15:53:44.147Z,0.00
2017-12-14T15:54:44.237Z,0.00
2017-12-14T15:55:44.141Z,0.00
2017-12-14T15:56:44.245Z,0.00
2017-12-14T15:57:44.150Z,0.00
2017-12-14T15:59:20.769Z,0.00
2017-12-14T16:00:20.692Z,0.00
2017-12-14T16:27:33.150Z,0.00
2017-12-14T16:27:46.452Z,0.00
2017-12-14T16:28:46.386Z,0.00
2017-12-14T16:29:46.442Z,0.00
2017-12-14T16:30:46.428Z,0.00
2017-12-14T16:32:08.637Z,0.00
2017-12-14T16:32:46.417Z,0.00
2017-12-14T16:33:46.482Z,0.00
2017-12-14T16:34:46.418Z,0.00
2017-12-14T16:35:46.492Z,0.00
2017-12-14T16:36:46.491Z,0.00
2017-12-14T16:37:51.203Z,0.00
2017-12-14T16:38:46.391Z,0.00
2017-12-14T16:40:10.242Z,0.00
2017-12-14T16:40:46.431Z,0.00
2017-12-14T16:41:46.416Z,0.00
2017-12-14T16:42:48.453Z,0.00
2017-12-14T16:43:46.412Z,0.00
2017-12-14T16:45:03.231Z,0.00
2017-12-14T16:45:46.436Z,0.00
2017-12-14T16:46:46.411Z,0.00
2017-12-14T16:47:46.556Z,0.00
2017-12-14T16:48:46.423Z,0.00
2017-12-14T16:49:46.466Z,0.00
2017-12-14T16:50:46.447Z,0.00
2017-12-14T16:52:07.471Z,0.00
2017-12-14T16:52:46.423Z,0.00
2017-12-14T16:53:47.517Z,0.00
2017-12-14T16:54:46.433Z,0.00
2017-12-14T16:55:47.519Z,0.00
2017-12-14T16:56:46.441Z,0.00
2017-12-14T16:57:59.270Z,0.00
2017-12-14T16:58:46.436Z,0.00
2017-12-14T16:59:48.501Z,0.00
2017-12-14T17:00:46.455Z,0.00
2017-12-14T17:01:46.457Z,0.00
2017-12-14T17:02:48.521Z,0.00
2017-12-14T17:03:46.453Z,0.00
2017-12-14T17:05:02.150Z,0.00
2017-12-14T17:05:46.471Z,0.00
2017-12-14T17:06:52.225Z,0.00
2017-12-14T17:07:46.489Z,0.00
2017-12-14T17:08:59.208Z,0.00
2017-12-14T17:09:46.564Z,0.00
2017-12-14T17:10:53.186Z,0.00
2017-12-14T17:11:46.493Z,0.00
2017-12-14T17:12:46.553Z,0.00
2017-12-14T17:13:46.509Z,0.00
2017-12-14T17:14:48.591Z,0.00
2017-12-14T17:15:46.494Z,0.00
2017-12-14T17:16:47.580Z,0.00
2017-12-14T17:17:46.490Z,0.00
2017-12-14T17:18:57.230Z,0.00
2017-12-14T17:19:46.513Z,0.00
2017-12-14T17:20:51.232Z,0.00
2017-12-14T17:21:46.511Z,0.00
2017-12-14T17:22:52.247Z,0.00
2017-12-14T17:23:46.528Z,0.00
2017-12-14T17:24:48.563Z,0.00
2017-12-14T17:25:46.546Z,0.00
2017-12-14T19:26:33.864Z,0.00
2017-12-14T19:27:31.654Z,0.00
2017-12-14T20:07:02.366Z,0.00
2017-12-14T20:07:44.214Z,0.00
2017-12-14T20:09:04.261Z,0.00
2017-12-14T20:10:04.294Z,0.00
2017-12-14T20:11:04.340Z,0.00
2017-12-14T20:12:04.202Z,0.00
2017-12-14T20:13:04.362Z,0.00
2017-12-14T20:14:04.223Z,0.00
2017-12-14T20:15:04.377Z,0.00
2017-12-14T20:16:04.220Z,0.00
2017-12-14T20:17:04.276Z,0.00
2017-12-14T20:18:04.306Z,0.00
2017-12-14T20:19:04.274Z,0.00
2017-12-14T20:20:04.238Z,0.00
2017-12-14T20:21:04.216Z,0.00
2017-12-14T20:22:04.326Z,0.00
2017-12-14T20:23:04.231Z,0.00
2017-12-14T20:24:06.383Z,0.00
2017-12-14T20:25:04.241Z,0.00
2017-12-14T20:26:04.335Z,0.00
2017-12-14T20:27:04.263Z,0.00
2017-12-14T20:28:04.227Z,0.00
2017-12-14T20:29:04.367Z,0.00
2017-12-14T20:30:04.267Z,0.00
2017-12-14T20:31:09.890Z,0.00
2017-12-14T20:32:04.258Z,0.00
2017-12-14T20:33:05.414Z,0.00
2017-12-14T20:34:04.252Z,0.00
2017-12-14T20:35:05.420Z,0.00
2017-12-14T20:36:04.282Z,0.00
2017-12-14T20:37:04.403Z,0.00
2017-12-14T20:38:04.262Z,0.00
2017-12-14T20:39:04.421Z,0.00
2017-12-14T20:40:04.286Z,0.00
2017-12-14T20:41:04.284Z,0.00
2017-12-14T20:42:04.391Z,0.00
2017-12-14T20:43:04.286Z,0.00
2017-12-14T20:44:04.277Z,0.00
2017-12-14T20:45:04.303Z,0.00
2017-12-14T20:46:04.363Z,0.00
2017-12-14T20:47:04.282Z,0.00
2017-12-14T20:48:04.289Z,0.00
2017-12-14T20:49:04.326Z,0.00
2017-12-14T20:50:04.298Z,0.00
2017-12-14T20:51:04.402Z,0.00
2017-12-14T20:52:04.311Z,0.00
2017-12-14T20:53:04.421Z,0.00
2017-12-14T20:54:04.322Z,0.00
2017-12-14T20:55:04.422Z,0.00
2017-12-14T20:56:04.302Z,0.00
2017-12-14T20:57:04.435Z,0.00
2017-12-14T20:58:04.323Z,0.00
2017-12-14T20:59:04.458Z,0.00
2017-12-14T21:00:04.322Z,0.00
2017-12-14T21:01:04.466Z,0.00
2017-12-14T21:02:04.325Z,0.00
2017-12-14T21:03:04.493Z,0.00
2017-12-14T21:04:04.345Z,0.00
2017-12-14T21:05:04.330Z,0.00
2017-12-14T22:04:36.225Z,0.00
2017-12-14T22:05:34.349Z,0.00
2017-12-14T22:06:34.372Z,0.00
2017-12-14T22:07:34.376Z,0.00
2017-12-14T22:08:34.366Z,0.00
2017-12-14T22:09:34.490Z,0.00
2017-12-14T22:10:34.362Z,0.00
2017-12-14T22:11:34.370Z,0.00
2017-12-14T22:12:34.378Z,0.00
2017-12-14T22:13:35.426Z,0.00
2017-12-14T22:14:34.379Z,0.00
2017-12-14T22:15:36.478Z,0.00
2017-12-14T22:16:34.387Z,0.00
2017-12-14T22:17:34.389Z,0.00
2017-12-14T22:18:34.422Z,0.00
2017-12-14T22:19:34.383Z,0.00
2017-12-14T22:20:34.396Z,0.00
2017-12-14T22:21:34.392Z,0.00
2017-12-14T22:22:34.438Z,0.00
2017-12-14T22:23:34.447Z,0.00
2017-12-14T22:24:34.394Z,0.00
2017-12-14T22:25:34.413Z,0.00
2017-12-14T22:26:34.407Z,0.00
2017-12-14T22:27:34.421Z,0.00
2017-12-14T22:28:34.445Z,0.00
2017-12-14T22:29:34.443Z,0.00
2017-12-14T22:30:34.425Z,0.00
2017-12-14T22:31:34.422Z,0.00
2017-12-14T22:32:34.417Z,0.00
2017-12-14T22:33:34.427Z,0.00